createdAt,value
2023-05-11T00:00:17.582Z,10.3
2023-05-11T00:01:23.853Z,10.2
2023-05-11T00:02:30.132Z,10.2
2023-05-11T00:03:36.391Z,10.2
2023-05-11T00:04:42.677Z,10.2
2023-05-11T00:05:48.948Z,10.3
2023-05-11T00:06:54.233Z,10.3
2023-05-11T00:08:00.504Z,10.3
2023-05-11T00:09:06.780Z,10.3
2023-05-11T00:10:13.105Z,10.3
2023-05-11T00:11:19.319Z,10.3
2023-05-11T00:12:25.663Z,10.3
2023-05-11T00:13:31.864Z,10.3
2023-05-11T00:14:38.136Z,10.3
2023-05-11T00:15:44.425Z,10.3
2023-05-11T00:16:50.710Z,10.3
2023-05-11T00:17:56.956Z,10.3
2023-05-11T00:19:03.255Z,10.3
2023-05-11T00:20:09.496Z,10.3
2023-05-11T00:21:14.779Z,10.3
2023-05-11T00:22:21.057Z,10.3
2023-05-11T00:23:27.331Z,10.3
2023-05-11T00:24:33.620Z,10.3
2023-05-11T00:25:39.867Z,10.4
2023-05-11T00:26:46.145Z,10.3
2023-05-11T00:27:52.422Z,10.3
2023-05-11T00:28:58.700Z,10.3
2023-05-11T00:30:04.950Z,10.3
2023-05-11T00:31:11.227Z,10.3
2023-05-11T00:32:17.503Z,10.3
2023-05-11T00:33:23.769Z,10.4
2023-05-11T00:34:30.049Z,10.3
2023-05-11T00:35:35.357Z,10.4
2023-05-11T00:36:41.605Z,10.4
2023-05-11T00:37:47.892Z,10.4
2023-05-11T00:38:54.147Z,10.4
2023-05-11T00:40:00.423Z,10.4
2023-05-11T00:41:06.699Z,10.4
2023-05-11T00:42:12.961Z,10.4
2023-05-11T00:43:19.237Z,10.4
2023-05-11T00:44:25.507Z,10.4
2023-05-11T00:45:31.790Z,10.4
2023-05-11T00:46:38.052Z,10.4
2023-05-11T00:47:44.324Z,10.4
2023-05-11T00:48:50.591Z,10.4
2023-05-11T00:49:55.884Z,10.4
2023-05-11T00:51:02.151Z,10.4
2023-05-11T00:52:08.422Z,10.4
2023-05-11T00:53:14.700Z,10.4
2023-05-11T00:54:20.966Z,10.4
2023-05-11T00:55:27.240Z,10.3
2023-05-11T00:56:33.518Z,10.3
2023-05-11T00:57:39.792Z,10.3
2023-05-11T00:58:46.057Z,10.3
2023-05-11T00:59:52.329Z,10.2
2023-05-11T01:00:58.597Z,10.2
2023-05-11T01:02:04.877Z,10.2
2023-05-11T01:03:11.150Z,10.2
2023-05-11T01:04:16.429Z,10.2
2023-05-11T01:05:22.703Z,10.2
2023-05-11T01:06:28.976Z,10.2
2023-05-11T01:07:35.254Z,10.2
2023-05-11T01:08:41.524Z,10.2
2023-05-11T01:09:47.797Z,10.2
2023-05-11T01:10:54.225Z,10.2
2023-05-11T01:12:00.338Z,10.3
2023-05-11T01:13:06.611Z,10.3
2023-05-11T01:14:12.889Z,10.2
2023-05-11T01:15:19.157Z,10.2
2023-05-11T01:16:25.469Z,10.2
2023-05-11T01:17:31.705Z,10.2
2023-05-11T01:18:37.094Z,10.2
2023-05-11T01:19:43.263Z,10.2
2023-05-11T01:20:49.545Z,10.2
2023-05-11T01:21:55.810Z,10.2
2023-05-11T01:23:02.085Z,10.2
2023-05-11T01:24:08.352Z,10.2
2023-05-11T01:25:14.623Z,10.2
2023-05-11T01:26:20.899Z,10.2
2023-05-11T01:27:27.172Z,10.2
2023-05-11T01:28:33.428Z,10.2
2023-05-11T01:29:39.714Z,10.2
2023-05-11T01:30:45.978Z,10.2
2023-05-11T01:31:52.250Z,10.2
2023-05-11T01:32:57.562Z,10.2
2023-05-11T01:34:03.819Z,10.3
2023-05-11T01:35:10.109Z,10.2
2023-05-11T01:36:16.359Z,10.2
2023-05-11T01:37:22.648Z,10.2
2023-05-11T01:38:28.907Z,10.3
2023-05-11T01:39:34.209Z,10.2
2023-05-11T01:40:40.478Z,10.3
2023-05-11T01:41:46.742Z,10.2
2023-05-11T01:42:53.031Z,10.2
2023-05-11T01:43:59.286Z,10.2
2023-05-11T01:45:05.551Z,10.2
2023-05-11T01:46:11.832Z,10.2
2023-05-11T01:47:18.094Z,10.2
2023-05-11T01:48:24.375Z,10.2
2023-05-11T01:49:30.641Z,10.2
2023-05-11T01:50:36.911Z,10.2
2023-05-11T01:51:43.184Z,10.2
2023-05-11T01:52:49.461Z,10.2
2023-05-11T01:53:54.746Z,10.2
2023-05-11T01:55:01.018Z,10.2
2023-05-11T01:56:07.296Z,10.2
2023-05-11T01:57:13.566Z,10.2
2023-05-11T01:58:19.842Z,10.2
2023-05-11T01:59:26.104Z,10.2
2023-05-11T02:00:32.372Z,10.2
2023-05-11T02:01:38.656Z,10.2
2023-05-11T02:02:44.914Z,10.2
2023-05-11T02:03:51.203Z,10.2
2023-05-11T02:04:57.462Z,10.2
2023-05-11T02:06:03.770Z,10.2
2023-05-11T02:07:10.002Z,10.2
2023-05-11T02:08:16.274Z,10.2
2023-05-11T02:09:21.569Z,10.2
2023-05-11T02:10:27.836Z,10.2
2023-05-11T02:11:34.118Z,10.2
2023-05-11T02:12:40.384Z,10.2
2023-05-11T02:13:46.649Z,10.2
2023-05-11T02:14:52.943Z,10.2
2023-05-11T02:15:59.199Z,10.2
2023-05-11T02:17:05.467Z,10.2
2023-05-11T02:18:11.748Z,10.2
2023-05-11T02:19:18.014Z,10.2
2023-05-11T02:20:24.302Z,10.2
2023-05-11T02:21:30.563Z,10.2
2023-05-11T02:22:36.840Z,10.2
2023-05-11T02:23:43.120Z,10.2
2023-05-11T02:24:48.387Z,10.2
2023-05-11T02:25:54.666Z,10.2
2023-05-11T02:27:00.936Z,10.2
2023-05-11T02:28:07.217Z,10.2
2023-05-11T02:29:13.476Z,10.2
2023-05-11T02:30:19.751Z,10.2
2023-05-11T02:31:26.018Z,10.2
2023-05-11T02:32:32.288Z,10.2
2023-05-11T02:33:38.566Z,10.2
2023-05-11T02:34:44.845Z,10.2
2023-05-11T02:35:51.102Z,10.1
2023-05-11T02:36:57.374Z,10.1
2023-05-11T02:38:03.651Z,10.1
2023-05-11T02:39:08.941Z,10.1
2023-05-11T02:40:15.217Z,10.1
2023-05-11T02:41:21.487Z,10.1
2023-05-11T02:42:27.761Z,10.1
2023-05-11T02:43:34.032Z,10.1
2023-05-11T02:44:40.294Z,10.1
2023-05-11T02:45:46.577Z,10.1
2023-05-11T02:46:52.852Z,10.1
2023-05-11T02:47:59.153Z,10.1
2023-05-11T02:49:05.391Z,10.1
2023-05-11T02:50:11.651Z,10.1
2023-05-11T02:51:17.937Z,10.1
2023-05-11T02:52:24.202Z,10.1
2023-05-11T02:53:29.482Z,10.1
2023-05-11T02:54:35.762Z,10.1
2023-05-11T02:55:42.038Z,10.1
2023-05-11T02:56:48.302Z,10.1
2023-05-11T02:57:54.606Z,10.2
2023-05-11T02:59:00.850Z,10.2
2023-05-11T03:00:07.270Z,10.2
2023-05-11T03:01:13.402Z,10.2
2023-05-11T03:02:19.672Z,10.2
2023-05-11T03:03:25.953Z,10.2
2023-05-11T03:04:32.209Z,10.2
2023-05-11T03:05:38.485Z,10.2
2023-05-11T03:06:44.753Z,10.2
2023-05-11T03:07:50.050Z,10.2
2023-05-11T03:08:56.316Z,10.2
2023-05-11T03:10:02.582Z,10.2
2023-05-11T03:11:08.857Z,10.2
2023-05-11T03:12:15.139Z,10.2
2023-05-11T03:13:21.404Z,10.2
2023-05-11T03:14:27.676Z,10.2
2023-05-11T03:15:33.948Z,10.2
2023-05-11T03:16:40.224Z,10.2
2023-05-11T03:17:46.501Z,10.2
2023-05-11T03:18:52.760Z,10.2
2023-05-11T03:19:59.034Z,10.2
2023-05-11T03:21:05.305Z,10.2
2023-05-11T03:22:10.599Z,10.2
2023-05-11T03:23:16.882Z,10.2
2023-05-11T03:24:23.143Z,10.2
2023-05-11T03:25:29.422Z,10.2
2023-05-11T03:26:35.737Z,10.2
2023-05-11T03:27:41.968Z,10.2
2023-05-11T03:28:48.236Z,10.2
2023-05-11T03:29:54.503Z,10.1
2023-05-11T03:31:00.769Z,10.1
2023-05-11T03:32:07.043Z,10.2
2023-05-11T03:33:13.324Z,10.1
2023-05-11T03:34:19.594Z,10.1
2023-05-11T03:35:25.860Z,10.1
2023-05-11T03:36:31.154Z,10.1
2023-05-11T03:37:37.433Z,10.1
2023-05-11T03:38:43.719Z,10.1
2023-05-11T03:39:49.964Z,10.1
2023-05-11T03:40:56.250Z,10.1
2023-05-11T03:42:02.517Z,10.1
2023-05-11T03:43:08.781Z,10.1
2023-05-11T03:44:15.060Z,10.1
2023-05-11T03:45:21.337Z,10.1
2023-05-11T03:46:27.605Z,10.1
2023-05-11T03:47:33.876Z,10.1
2023-05-11T03:48:40.158Z,10.1
2023-05-11T03:49:46.501Z,10.1
2023-05-11T03:50:51.721Z,10.1
2023-05-11T03:51:57.975Z,10.1
2023-05-11T03:53:04.246Z,10.1
2023-05-11T03:54:10.525Z,10.1
2023-05-11T03:55:16.795Z,10.1
2023-05-11T03:56:23.064Z,10.1
2023-05-11T03:57:29.355Z,10.1
2023-05-11T03:58:35.619Z,10
2023-05-11T03:59:41.875Z,10
2023-05-11T04:00:48.147Z,10
2023-05-11T04:01:54.428Z,10
2023-05-11T04:03:00.699Z,10
2023-05-11T04:04:06.960Z,10.1
2023-05-11T04:05:12.290Z,10.1
2023-05-11T04:06:18.521Z,10.1
2023-05-11T04:07:24.813Z,10.1
2023-05-11T04:08:31.100Z,10
2023-05-11T04:09:37.342Z,10
2023-05-11T04:10:43.628Z,10.1
2023-05-11T04:11:49.895Z,10
2023-05-11T04:12:56.178Z,10.1
2023-05-11T04:14:02.429Z,10.1
2023-05-11T04:15:08.724Z,10.1
2023-05-11T04:16:14.976Z,10.1
2023-05-11T04:17:21.245Z,10.1
2023-05-11T04:18:27.514Z,10.1
2023-05-11T04:19:32.802Z,10.1
2023-05-11T04:20:39.089Z,10.1
2023-05-11T04:21:45.344Z,10.1
2023-05-11T04:22:51.631Z,10.1
2023-05-11T04:23:57.918Z,10.1
2023-05-11T04:25:04.161Z,10.1
2023-05-11T04:26:10.448Z,10.1
2023-05-11T04:27:16.709Z,10.1
2023-05-11T04:28:22.983Z,10.1
2023-05-11T04:29:29.256Z,10
2023-05-11T04:30:35.538Z,10
2023-05-11T04:31:41.826Z,10
2023-05-11T04:32:48.082Z,10
2023-05-11T04:33:54.337Z,10.1
2023-05-11T04:34:59.624Z,10.1
2023-05-11T04:36:05.911Z,10
2023-05-11T04:37:12.188Z,10
2023-05-11T04:38:18.448Z,10
2023-05-11T04:39:24.718Z,10.1
2023-05-11T04:40:30.990Z,10.1
2023-05-11T04:41:37.296Z,10.1
2023-05-11T04:42:43.616Z,10.1
2023-05-11T04:43:49.799Z,10.1
2023-05-11T04:44:56.128Z,10.1
2023-05-11T04:46:02.519Z,10.1
2023-05-11T04:47:08.643Z,10.1
2023-05-11T04:48:14.907Z,10.1
2023-05-11T04:49:20.176Z,10.1
2023-05-11T04:50:26.457Z,10.1
2023-05-11T04:51:32.718Z,10.1
2023-05-11T04:52:39.005Z,10
2023-05-11T04:53:45.272Z,10.1
2023-05-11T04:54:51.539Z,10.1
2023-05-11T04:55:57.822Z,10.1
2023-05-11T04:57:04.084Z,10.1
2023-05-11T04:58:10.359Z,10.1
2023-05-11T04:59:16.762Z,10.1
2023-05-11T05:00:22.908Z,10.1
2023-05-11T05:01:29.183Z,10.1
2023-05-11T05:02:35.443Z,10.1
2023-05-11T05:03:40.726Z,10
2023-05-11T05:04:47.017Z,10
2023-05-11T05:05:53.279Z,10
2023-05-11T05:06:59.548Z,10.1
2023-05-11T05:08:05.823Z,10.1
2023-05-11T05:09:12.103Z,10.1
2023-05-11T05:10:18.366Z,10.1
2023-05-11T05:11:24.645Z,10.1
2023-05-11T05:12:30.913Z,10.1
2023-05-11T05:13:37.207Z,10.1
2023-05-11T05:14:43.517Z,10.1
2023-05-11T05:15:49.749Z,10.1
2023-05-11T05:16:56.021Z,10.1
2023-05-11T05:18:01.288Z,10.1
2023-05-11T05:19:07.559Z,10.1
2023-05-11T05:20:13.833Z,10.1
2023-05-11T05:21:19.126Z,10.2
2023-05-11T05:22:25.398Z,10.1
2023-05-11T05:23:31.678Z,10.1
2023-05-11T05:24:37.973Z,10.1
2023-05-11T05:25:44.273Z,10.1
2023-05-11T05:26:50.514Z,10.1
2023-05-11T05:27:56.755Z,10.1
2023-05-11T05:29:03.030Z,10.2
2023-05-11T05:31:15.591Z,10.2
2023-05-11T05:32:21.850Z,10.2
2023-05-11T05:33:28.127Z,10.2
2023-05-11T05:34:34.389Z,10.3
2023-05-11T05:35:39.719Z,10.3
2023-05-11T05:36:45.972Z,10.3
2023-05-11T05:37:52.230Z,10.3
2023-05-11T05:38:58.520Z,10.3
2023-05-11T05:40:04.778Z,10.3
2023-05-11T05:41:11.040Z,10.4
2023-05-11T05:42:17.316Z,10.4
2023-05-11T05:43:23.580Z,10.4
2023-05-11T05:44:29.852Z,10.4
2023-05-11T05:45:36.134Z,10.3
2023-05-11T05:46:42.403Z,10.3
2023-05-11T05:47:48.673Z,10.3
2023-05-11T05:48:54.945Z,10.3
2023-05-11T05:50:00.267Z,10.3
2023-05-11T05:51:06.517Z,10.3
2023-05-11T05:52:12.775Z,10.3
2023-05-11T05:53:19.059Z,10.3
2023-05-11T05:54:25.319Z,10.3
2023-05-11T05:55:31.598Z,10.2
2023-05-11T05:56:37.864Z,10.2
2023-05-11T05:57:44.135Z,10.2
2023-05-11T05:58:50.406Z,10.2
2023-05-11T05:59:56.680Z,10.2
2023-05-11T06:01:03.019Z,10.1
2023-05-11T06:02:09.215Z,10.2
2023-05-11T06:03:15.526Z,10.2
2023-05-11T06:04:20.811Z,10.2
2023-05-11T06:05:27.057Z,10.2
2023-05-11T06:06:33.388Z,10.2
2023-05-11T06:07:39.676Z,10.2
2023-05-11T06:08:45.890Z,10.2
2023-05-11T06:09:52.159Z,10.2
2023-05-11T06:10:58.467Z,10.2
2023-05-11T06:12:04.679Z,10.2
2023-05-11T06:13:11.023Z,10.2
2023-05-11T06:14:17.221Z,10.2
2023-05-11T06:15:23.500Z,10.2
2023-05-11T06:16:29.773Z,10.2
2023-05-11T06:17:36.046Z,10.2
2023-05-11T06:18:41.384Z,10.3
2023-05-11T06:19:47.594Z,10.3
2023-05-11T06:20:53.891Z,10.4
2023-05-11T06:22:00.179Z,10.4
2023-05-11T06:23:06.429Z,10.4
2023-05-11T06:24:12.706Z,10.4
2023-05-11T06:25:18.964Z,10.4
2023-05-11T06:26:25.230Z,10.4
2023-05-11T06:27:31.508Z,10.4
2023-05-11T06:28:37.784Z,10.4
2023-05-11T06:29:44.048Z,10.4
2023-05-11T06:30:50.318Z,10.5
2023-05-11T06:31:56.599Z,10.5
2023-05-11T06:33:01.880Z,10.5
2023-05-11T06:34:08.150Z,10.5
2023-05-11T06:35:14.425Z,10.6
2023-05-11T06:36:20.701Z,10.6
2023-05-11T06:37:26.972Z,10.6
2023-05-11T06:38:33.426Z,10.6
2023-05-11T06:39:39.703Z,10.6
2023-05-11T06:40:45.981Z,10.6
2023-05-11T06:41:52.182Z,10.7
2023-05-11T06:42:58.447Z,10.7
2023-05-11T06:44:04.736Z,10.8
2023-05-11T06:45:10.862Z,10.8
2023-05-11T06:46:17.163Z,10.9
2023-05-11T06:47:22.434Z,11
2023-05-11T06:48:28.706Z,11
2023-05-11T06:49:34.976Z,11
2023-05-11T06:50:41.254Z,11.1
2023-05-11T06:51:47.526Z,11.2
2023-05-11T06:52:53.809Z,11.2
2023-05-11T06:54:00.071Z,11.3
2023-05-11T06:55:06.351Z,11.3
2023-05-11T06:56:12.608Z,11.3
2023-05-11T06:57:18.883Z,11.3
2023-05-11T06:58:25.150Z,11.4
2023-05-11T06:59:31.441Z,11.4
2023-05-11T07:00:37.758Z,11.5
2023-05-11T07:01:42.989Z,11.5
2023-05-11T07:02:49.254Z,11.5
2023-05-11T07:03:55.548Z,11.5
2023-05-11T07:05:01.805Z,11.5
2023-05-11T07:06:08.198Z,11.5
2023-05-11T07:07:14.395Z,11.5
2023-05-11T07:08:20.607Z,11.5
2023-05-11T07:09:26.991Z,11.5
2023-05-11T07:10:33.159Z,11.6
2023-05-11T07:11:39.431Z,11.6
2023-05-11T07:12:45.731Z,11.7
2023-05-11T07:13:52.004Z,11.7
2023-05-11T07:14:58.246Z,11.7
2023-05-11T07:16:03.540Z,11.7
2023-05-11T07:17:09.813Z,11.8
2023-05-11T07:18:16.158Z,11.8
2023-05-11T07:19:22.342Z,11.8
2023-05-11T07:20:28.621Z,11.8
2023-05-11T07:21:34.895Z,11.8
2023-05-11T07:22:41.163Z,11.8
2023-05-11T07:23:47.436Z,11.9
2023-05-11T07:24:53.712Z,11.9
2023-05-11T07:25:59.977Z,11.9
2023-05-11T07:27:06.249Z,12
2023-05-11T07:28:12.521Z,12
2023-05-11T07:29:18.787Z,12.1
2023-05-11T07:30:24.077Z,12.1
2023-05-11T07:31:30.360Z,12.1
2023-05-11T07:32:36.616Z,12.2
2023-05-11T07:33:42.894Z,12.2
2023-05-11T07:34:49.173Z,12.2
2023-05-11T07:35:55.458Z,12.2
2023-05-11T07:37:01.811Z,12.2
2023-05-11T07:38:08.166Z,12.2
2023-05-11T07:39:14.379Z,12.2
2023-05-11T07:40:20.543Z,12.3
2023-05-11T07:41:26.794Z,12.3
2023-05-11T07:42:33.070Z,12.3
2023-05-11T07:43:39.338Z,12.4
2023-05-11T07:44:44.635Z,12.4
2023-05-11T07:45:50.909Z,12.4
2023-05-11T07:46:57.176Z,12.4
2023-05-11T07:48:03.436Z,12.4
2023-05-11T07:49:09.719Z,12.5
2023-05-11T07:50:15.993Z,12.5
2023-05-11T07:51:22.306Z,12.5
2023-05-11T07:52:28.611Z,12.5
2023-05-11T07:53:34.907Z,12.5
2023-05-11T07:54:41.110Z,12.5
2023-05-11T07:55:47.410Z,12.6
2023-05-11T07:56:53.610Z,12.6
2023-05-11T07:57:59.993Z,12.6
2023-05-11T07:59:05.188Z,12.6
2023-05-11T08:00:11.442Z,12.7
2023-05-11T08:01:17.729Z,12.7
2023-05-11T08:02:23.992Z,12.7
2023-05-11T08:03:30.281Z,12.7
2023-05-11T08:04:36.529Z,12.7
2023-05-11T08:05:42.813Z,12.8
2023-05-11T08:06:49.086Z,12.8
2023-05-11T08:07:55.354Z,12.8
2023-05-11T08:09:01.630Z,12.9
2023-05-11T08:10:07.901Z,12.9
2023-05-11T08:11:14.170Z,13
2023-05-11T08:12:20.440Z,13
2023-05-11T08:13:25.728Z,13
2023-05-11T08:14:32.045Z,13
2023-05-11T08:15:38.268Z,13
2023-05-11T08:16:44.643Z,13
2023-05-11T08:17:50.950Z,13
2023-05-11T08:18:57.116Z,13.1
2023-05-11T08:20:03.355Z,13.1
2023-05-11T08:21:09.675Z,13.1
2023-05-11T08:22:15.903Z,13.1
2023-05-11T08:23:22.181Z,13.1
2023-05-11T08:24:28.450Z,13.1
2023-05-11T08:25:34.721Z,13.2
2023-05-11T08:26:40.989Z,13.2
2023-05-11T08:27:46.280Z,13.2
2023-05-11T08:28:52.559Z,13.3
2023-05-11T08:29:58.845Z,13.3
2023-05-11T08:31:05.104Z,13.3
2023-05-11T08:32:11.365Z,13.4
2023-05-11T08:33:17.640Z,13.4
2023-05-11T08:34:23.915Z,13.4
2023-05-11T08:35:30.179Z,13.5
2023-05-11T08:36:36.458Z,13.5
2023-05-11T08:37:42.726Z,13.5
2023-05-11T08:38:49.003Z,13.5
2023-05-11T08:39:55.275Z,13.5
2023-05-11T08:41:01.557Z,13.5
2023-05-11T08:42:06.829Z,13.5
2023-05-11T08:43:13.104Z,13.5
2023-05-11T08:44:19.383Z,13.5
2023-05-11T08:45:25.646Z,13.5
2023-05-11T08:46:31.917Z,13.6
2023-05-11T08:47:38.185Z,13.6
2023-05-11T08:48:44.490Z,13.6
2023-05-11T08:49:50.825Z,13.6
2023-05-11T08:50:57.036Z,13.7
2023-05-11T08:52:03.305Z,13.7
2023-05-11T08:53:09.545Z,13.7
2023-05-11T08:54:15.818Z,13.7
2023-05-11T08:55:22.088Z,13.7
2023-05-11T08:56:27.380Z,13.7
2023-05-11T08:57:33.658Z,13.7
2023-05-11T08:58:39.918Z,13.7
2023-05-11T08:59:46.193Z,13.8
2023-05-11T09:00:52.464Z,13.8
2023-05-11T09:01:58.828Z,13.8
2023-05-11T09:03:05.011Z,13.8
2023-05-11T09:04:11.282Z,13.8
2023-05-11T09:05:16.597Z,13.8
2023-05-11T09:06:22.841Z,13.9
2023-05-11T09:07:29.118Z,13.9
2023-05-11T09:08:35.466Z,13.9
2023-05-11T09:09:41.677Z,13.9
2023-05-11T09:10:47.936Z,13.9
2023-05-11T09:11:54.234Z,13.9
2023-05-11T09:13:00.497Z,13.9
2023-05-11T09:14:06.757Z,14
2023-05-11T09:15:13.017Z,14.1
2023-05-11T09:16:19.290Z,14.1
2023-05-11T09:17:25.576Z,14.1
2023-05-11T09:18:31.884Z,14.2
2023-05-11T09:19:37.127Z,14.1
2023-05-11T09:20:43.396Z,14.2
2023-05-11T09:21:49.673Z,14.2
2023-05-11T09:22:56.005Z,14.2
2023-05-11T09:24:02.222Z,14.2
2023-05-11T09:25:08.482Z,14.1
2023-05-11T09:26:14.757Z,14.1
2023-05-11T09:27:21.037Z,14.1
2023-05-11T09:28:27.304Z,14.1
2023-05-11T09:29:33.576Z,14
2023-05-11T09:30:39.926Z,14
2023-05-11T09:31:46.159Z,14
2023-05-11T09:32:52.416Z,14
2023-05-11T09:33:57.674Z,14
2023-05-11T09:35:03.949Z,14
2023-05-11T09:36:10.320Z,14
2023-05-11T09:37:16.642Z,14
2023-05-11T09:38:22.763Z,14
2023-05-11T09:39:29.045Z,13.9
2023-05-11T09:40:35.305Z,14
2023-05-11T09:41:41.581Z,14
2023-05-11T09:42:47.854Z,14
2023-05-11T09:43:54.137Z,14
2023-05-11T09:45:00.396Z,14.1
2023-05-11T09:46:06.665Z,14.1
2023-05-11T09:47:12.957Z,14
2023-05-11T09:48:18.273Z,14.1
2023-05-11T09:49:24.511Z,14
2023-05-11T09:50:30.802Z,14.1
2023-05-11T09:51:37.074Z,14.1
2023-05-11T09:52:43.430Z,14.1
2023-05-11T09:53:49.593Z,14.1
2023-05-11T09:54:55.855Z,14.1
2023-05-11T09:56:02.127Z,14.1
2023-05-11T09:57:08.418Z,14.1
2023-05-11T09:58:14.675Z,14.1
2023-05-11T09:59:20.942Z,14.1
2023-05-11T10:00:27.216Z,14.1
2023-05-11T10:01:33.492Z,14.1
2023-05-11T10:02:38.789Z,14.1
2023-05-11T10:03:45.073Z,14.2
2023-05-11T10:04:51.319Z,14.2
2023-05-11T10:05:57.599Z,14.2
2023-05-11T10:07:03.866Z,14.2
2023-05-11T10:08:10.155Z,14.2
2023-05-11T10:09:16.400Z,14.2
2023-05-11T10:10:22.688Z,14.2
2023-05-11T10:11:28.959Z,14.2
2023-05-11T10:12:35.266Z,14.2
2023-05-11T10:13:41.513Z,14.2
2023-05-11T10:14:47.927Z,14.2
2023-05-11T10:15:54.106Z,14.2
2023-05-11T10:16:59.329Z,14.2
2023-05-11T10:18:05.599Z,14.2
2023-05-11T10:19:11.912Z,14.1
2023-05-11T10:20:18.159Z,14
2023-05-11T10:21:24.422Z,13.9
2023-05-11T10:22:30.685Z,13.9
2023-05-11T10:23:36.961Z,13.9
2023-05-11T10:24:43.265Z,13.8
2023-05-11T10:25:49.503Z,13.8
2023-05-11T10:26:55.782Z,13.8
2023-05-11T10:28:02.048Z,13.8
2023-05-11T10:29:08.356Z,13.8
2023-05-11T10:30:14.572Z,13.8
2023-05-11T10:31:19.893Z,13.9
2023-05-11T10:32:26.165Z,13.9
2023-05-11T10:33:32.412Z,13.9
2023-05-11T10:34:38.685Z,13.9
2023-05-11T10:35:44.959Z,14
2023-05-11T10:36:51.233Z,14
2023-05-11T10:37:57.502Z,13.9
2023-05-11T10:39:03.781Z,13.9
2023-05-11T10:40:10.048Z,13.9
2023-05-11T10:41:16.339Z,13.8
2023-05-11T10:42:22.595Z,13.8
2023-05-11T10:43:28.872Z,13.8
2023-05-11T10:44:35.141Z,13.7
2023-05-11T10:45:40.427Z,13.8
2023-05-11T10:46:46.692Z,13.8
2023-05-11T10:47:52.966Z,13.8
2023-05-11T10:48:59.230Z,13.8
2023-05-11T10:50:05.501Z,13.8
2023-05-11T10:51:11.770Z,13.8
2023-05-11T10:52:18.056Z,13.8
2023-05-11T10:53:24.330Z,13.7
2023-05-11T10:54:30.588Z,13.7
2023-05-11T10:55:36.957Z,13.7
2023-05-11T10:56:43.170Z,13.7
2023-05-11T10:57:49.403Z,13.6
2023-05-11T10:58:55.679Z,13.7
2023-05-11T11:00:00.969Z,13.6
2023-05-11T11:01:07.261Z,13.6
2023-05-11T11:02:13.527Z,13.6
2023-05-11T11:03:19.797Z,13.5
2023-05-11T11:04:26.096Z,13.5
2023-05-11T11:05:32.329Z,13.4
2023-05-11T11:06:38.606Z,13.3
2023-05-11T11:07:44.879Z,13.2
2023-05-11T11:08:51.164Z,13.1
2023-05-11T11:09:57.431Z,13
2023-05-11T11:11:03.714Z,13
2023-05-11T11:12:09.997Z,13
2023-05-11T11:13:16.237Z,12.9
2023-05-11T11:14:21.671Z,12.9
2023-05-11T11:15:27.961Z,12.9
2023-05-11T11:16:34.333Z,12.8
2023-05-11T11:17:40.522Z,12.8
2023-05-11T11:18:46.615Z,12.8
2023-05-11T11:19:52.882Z,12.8
2023-05-11T11:20:59.154Z,12.8
2023-05-11T11:22:05.428Z,12.8
2023-05-11T11:23:11.695Z,12.8
2023-05-11T11:24:17.970Z,12.8
2023-05-11T11:25:24.251Z,12.8
2023-05-11T11:26:30.524Z,12.8
2023-05-11T11:27:36.786Z,12.9
2023-05-11T11:28:42.211Z,12.8
2023-05-11T11:29:48.358Z,12.9
2023-05-11T11:30:54.632Z,12.9
2023-05-11T11:32:00.883Z,13
2023-05-11T11:33:07.197Z,13
2023-05-11T11:34:13.437Z,13.1
2023-05-11T11:35:19.707Z,13.1
2023-05-11T11:36:25.990Z,13.2
2023-05-11T11:37:32.270Z,13.2
2023-05-11T11:38:38.527Z,13.3
2023-05-11T11:39:44.790Z,13.4
2023-05-11T11:40:51.094Z,13.4
2023-05-11T11:41:57.374Z,13.5
2023-05-11T11:43:02.629Z,13.6
2023-05-11T11:44:08.895Z,13.6
2023-05-11T11:45:15.165Z,13.6
2023-05-11T11:46:21.445Z,13.7
2023-05-11T11:47:27.708Z,13.7
2023-05-11T11:48:33.983Z,13.7
2023-05-11T11:49:40.262Z,13.7
2023-05-11T11:50:46.557Z,13.7
2023-05-11T11:51:52.798Z,13.7
2023-05-11T11:52:59.069Z,13.7
2023-05-11T11:54:05.379Z,13.7
2023-05-11T11:55:11.664Z,13.7
2023-05-11T11:56:17.885Z,13.6
2023-05-11T11:57:23.169Z,13.6
2023-05-11T11:58:29.454Z,13.6
2023-05-11T11:59:35.710Z,13.6
2023-05-11T12:00:42.022Z,13.6
2023-05-11T12:01:48.256Z,13.6
2023-05-11T12:02:54.561Z,13.5
2023-05-11T12:04:00.800Z,13.5
2023-05-11T12:05:07.113Z,13.5
2023-05-11T12:06:13.393Z,13.5
2023-05-11T12:07:19.628Z,13.4
2023-05-11T12:08:25.893Z,13.4
2023-05-11T12:09:32.174Z,13.4
2023-05-11T12:10:38.454Z,13.4
2023-05-11T12:11:43.888Z,13.3
2023-05-11T12:12:50.197Z,13.3
2023-05-11T12:13:56.361Z,13.2
2023-05-11T12:15:02.736Z,13.2
2023-05-11T12:16:08.806Z,13.2
2023-05-11T12:17:15.076Z,13.3
2023-05-11T12:18:21.351Z,13.3
2023-05-11T12:19:27.621Z,13.3
2023-05-11T12:20:33.939Z,13.3
2023-05-11T12:21:40.167Z,13.3
2023-05-11T12:22:46.440Z,13.2
2023-05-11T12:23:52.707Z,13.3
2023-05-11T12:24:59.010Z,13.3
2023-05-11T12:26:04.395Z,13.3
2023-05-11T12:27:10.741Z,13.3
2023-05-11T12:28:16.863Z,13.2
2023-05-11T12:29:23.093Z,13.3
2023-05-11T12:30:29.488Z,13.3
2023-05-11T12:31:35.640Z,13.3
2023-05-11T12:32:41.915Z,13.3
2023-05-11T12:33:48.182Z,13.3
2023-05-11T12:34:54.462Z,13.3
2023-05-11T12:36:00.741Z,13.2
2023-05-11T12:37:06.989Z,13.2
2023-05-11T12:38:13.252Z,13.2
2023-05-11T12:39:19.539Z,13.2
2023-05-11T12:40:25.806Z,13.3
2023-05-11T12:41:31.099Z,13.3
2023-05-11T12:42:37.376Z,13.4
2023-05-11T12:43:43.658Z,13.4
2023-05-11T12:44:49.912Z,13.5
2023-05-11T12:45:56.189Z,13.5
2023-05-11T12:47:01.534Z,13.6
2023-05-11T12:48:07.753Z,13.6
2023-05-11T12:49:14.026Z,13.6
2023-05-11T12:50:20.327Z,13.5
2023-05-11T12:51:26.569Z,13.6
2023-05-11T12:52:32.836Z,13.6
2023-05-11T12:53:39.107Z,13.6
2023-05-11T12:54:45.375Z,13.6
2023-05-11T12:55:51.656Z,13.5
2023-05-11T12:56:57.926Z,13.5
2023-05-11T12:58:04.189Z,13.5
2023-05-11T12:59:10.472Z,13.4
2023-05-11T13:00:16.737Z,13.3
2023-05-11T13:01:22.023Z,13.2
2023-05-11T13:02:28.299Z,13.2
2023-05-11T13:03:34.572Z,13.1
2023-05-11T13:04:40.853Z,13.1
2023-05-11T13:05:47.139Z,13
2023-05-11T13:06:53.410Z,13
2023-05-11T13:07:59.658Z,12.9
2023-05-11T13:09:05.927Z,12.8
2023-05-11T13:10:12.193Z,12.7
2023-05-11T13:11:18.469Z,12.6
2023-05-11T13:12:24.738Z,12.6
2023-05-11T13:13:31.090Z,12.6
2023-05-11T13:14:37.288Z,12.5
2023-05-11T13:15:42.568Z,12.5
2023-05-11T13:16:48.852Z,12.6
2023-05-11T13:17:55.139Z,12.5
2023-05-11T13:19:01.380Z,12.5
2023-05-11T13:20:07.663Z,12.5
2023-05-11T13:21:13.931Z,12.5
2023-05-11T13:22:20.219Z,12.5
2023-05-11T13:23:26.475Z,12.5
2023-05-11T13:24:32.753Z,12.5
2023-05-11T13:25:39.018Z,12.4
2023-05-11T13:26:45.288Z,12.5
2023-05-11T13:27:51.564Z,12.5
2023-05-11T13:28:57.833Z,12.5
2023-05-11T13:30:03.141Z,12.5
2023-05-11T13:31:09.388Z,12.6
2023-05-11T13:32:15.703Z,12.6
2023-05-11T13:33:21.940Z,12.6
2023-05-11T13:34:28.209Z,12.7
2023-05-11T13:35:34.478Z,12.7
2023-05-11T13:36:40.755Z,12.7
2023-05-11T13:37:47.020Z,12.8
2023-05-11T13:38:53.292Z,12.8
2023-05-11T13:39:59.602Z,12.9
2023-05-11T13:41:05.843Z,12.9
2023-05-11T13:42:12.107Z,13
2023-05-11T13:43:18.395Z,13
2023-05-11T13:44:23.673Z,13.1
2023-05-11T13:45:29.942Z,13.1
2023-05-11T13:46:36.211Z,13.2
2023-05-11T13:47:42.490Z,13.2
2023-05-11T13:48:48.765Z,13.2
2023-05-11T13:49:55.060Z,13.3
2023-05-11T13:51:01.315Z,13.3
2023-05-11T13:52:07.578Z,13.3
2023-05-11T13:53:13.885Z,13.2
2023-05-11T13:54:20.125Z,13.2
2023-05-11T13:55:26.399Z,13.2
2023-05-11T13:56:32.736Z,13.2
2023-05-11T13:57:38.947Z,13.1
2023-05-11T13:58:45.235Z,13.1
2023-05-11T13:59:50.535Z,13
2023-05-11T14:00:56.767Z,13
2023-05-11T14:02:03.046Z,13
2023-05-11T14:03:09.323Z,13
2023-05-11T14:04:15.589Z,13
2023-05-11T14:05:21.852Z,13
2023-05-11T14:06:28.167Z,13
2023-05-11T14:07:34.428Z,12.9
2023-05-11T14:08:40.700Z,12.9
2023-05-11T14:09:46.946Z,12.9
2023-05-11T14:10:53.212Z,12.8
2023-05-11T14:11:59.488Z,12.8
2023-05-11T14:13:05.836Z,12.8
2023-05-11T14:14:11.048Z,12.8
2023-05-11T14:15:17.350Z,12.8
2023-05-11T14:16:23.620Z,12.8
2023-05-11T14:17:29.863Z,12.8
2023-05-11T14:18:36.134Z,12.7
2023-05-11T14:19:42.424Z,12.7
2023-05-11T14:20:48.683Z,12.7
2023-05-11T14:21:54.948Z,12.7
2023-05-11T14:23:01.231Z,12.7
2023-05-11T14:24:07.492Z,12.7
2023-05-11T14:25:13.772Z,12.7
2023-05-11T14:26:20.049Z,12.7
2023-05-11T14:27:26.313Z,12.7
2023-05-11T14:28:31.594Z,12.7
2023-05-11T14:29:37.873Z,12.7
2023-05-11T14:30:44.146Z,12.7
2023-05-11T14:31:50.419Z,12.7
2023-05-11T14:32:56.682Z,12.7
2023-05-11T14:34:02.992Z,12.7
2023-05-11T14:35:09.222Z,12.7
2023-05-11T14:36:15.499Z,12.7
2023-05-11T14:37:21.770Z,12.7
2023-05-11T14:38:28.054Z,12.7
2023-05-11T14:39:34.351Z,12.7
2023-05-11T14:40:40.610Z,12.7
2023-05-11T14:41:46.867Z,12.7
2023-05-11T14:42:53.226Z,12.7
2023-05-11T14:43:59.431Z,12.7
2023-05-11T14:45:04.689Z,12.7
2023-05-11T14:46:11.005Z,12.7